Time;durP1;ratioP1;P1;durP2;ratioP2;P2;SDS_P1;SDS_P2;PMS_P1;PMS_P2;Temp;Humidity;BMP_temperature;BMP_pressure;BME280_temperature;BME280_humidity;BME280_pressure;Samples;Min_cycle;Max_cycle;Signal;HPM_P1;HPM_P2
2023/07/17 00:00:25;;;;;;;6.78;2.65;;;;;;;;;;5069754;28;20032;-72
2023/07/17 00:02:51;;;;;;;9.38;2.70;;;17.30;99.90;;;;;;5087882;28;20486;-72
2023/07/17 00:05:17;;;;;;;11.82;2.63;;;;;;;;;;5087795;28;20063;-72
2023/07/17 00:07:43;;;;;;;9.45;2.85;;;17.30;99.90;;;;;;5068648;28;20040;-72
2023/07/17 00:10:10;;;;;;;8.60;2.20;;;17.50;99.90;;;;;;5087792;28;20039;-72
2023/07/17 00:12:36;;;;;;;14.55;2.72;;;;;;;;;;5062992;28;20135;-72
2023/07/17 00:15:05;;;;;;;10.65;2.75;;;;;;;;;;5069114;28;20047;-72
2023/07/17 00:17:32;;;;;;;10.88;2.90;;;17.30;99.90;;;;;;5068627;28;20058;-72
2023/07/17 00:19:58;;;;;;;10.80;2.40;;;17.20;99.90;;;;;;5061326;28;20088;-72
2023/07/17 00:22:24;;;;;;;16.33;3.88;;;17.20;99.90;;;;;;5083961;28;20064;-72
2023/07/17 00:24:52;;;;;;;12.10;2.30;;;17.40;99.90;;;;;;5087663;28;20385;-72
2023/07/17 00:27:17;;;;;;;9.57;2.28;;;17.20;99.90;;;;;;5060031;28;20048;-72
2023/07/17 00:29:44;;;;;;;8.85;2.20;;;;;;;;;;5081390;28;20085;-72
2023/07/17 00:32:13;;;;;;;11.80;2.60;;;16.90;99.90;;;;;;5068845;28;20109;-72
2023/07/17 00:34:42;;;;;;;12.23;3.67;;;16.70;99.90;;;;;;5067455;28;20051;-72
2023/07/17 00:37:08;;;;;;;9.02;2.55;;;16.70;99.90;;;;;;5067545;28;20512;-72
2023/07/17 00:39:34;;;;;;;11.57;2.28;;;16.60;99.90;;;;;;5063833;28;20043;-72
2023/07/17 00:42:01;;;;;;;6.10;1.88;;;;;;;;;;5086402;28;20132;-72
2023/07/17 00:44:27;;;;;;;6.05;2.00;;;16.60;99.90;;;;;;5068014;28;20051;-72
2023/07/17 00:46:54;;;;;;;8.60;2.47;;;16.10;99.90;;;;;;5085939;28;20122;-72
2023/07/17 00:49:22;;;;;;;7.95;2.47;;;16.30;99.90;;;;;;5081513;28;20065;-72
2023/07/17 00:51:48;;;;;;;6.72;2.40;;;;;;;;;;5068591;28;20557;-72
2023/07/17 00:54:14;;;;;;;10.48;2.15;;;16.00;99.90;;;;;;5067845;28;20048;-72
2023/07/17 00:56:41;;;;;;;8.00;2.35;;;16.10;99.90;;;;;;5068117;28;20047;-72
2023/07/17 00:59:08;;;;;;;6.13;1.90;;;15.80;99.90;;;;;;5052016;28;20048;-72
2023/07/17 01:01:34;;;;;;;8.18;2.40;;;15.90;99.90;;;;;;5083197;28;20036;-72
2023/07/17 01:04:04;;;;;;;9.07;2.03;;;15.80;99.90;;;;;;5061612;28;20056;-72
2023/07/17 01:06:30;;;;;;;7.28;2.65;;;15.80;99.90;;;;;;5066803;28;20114;-72
2023/07/17 01:08:57;;;;;;;8.75;2.70;;;15.80;99.90;;;;;;5066600;28;20169;-72
2023/07/17 01:11:23;;;;;;;8.82;2.72;;;;;;;;;;5068798;28;20579;-72
2023/07/17 01:13:50;;;;;;;9.80;2.60;;;15.90;99.90;;;;;;5068576;28;20048;-72
2023/07/17 01:16:16;;;;;;;8.52;2.85;;;;;;;;;;5052201;28;20036;-72
2023/07/17 01:18:42;;;;;;;12.80;2.58;;;;;;;;;;5069554;28;20052;-71
2023/07/17 01:21:12;;;;;;;11.57;2.47;;;15.70;99.90;;;;;;5085776;28;20085;-73
2023/07/17 01:23:37;;;;;;;7.38;2.70;;;15.70;99.90;;;;;;5068648;28;20044;-72
2023/07/17 01:26:17;;;;;;;4.53;2.00;;;15.70;99.90;;;;;;5068051;28;20051;-72
2023/07/17 01:28:44;;;;;;;9.07;2.72;;;;;;;;;;5085750;28;20093;-71
2023/07/17 01:31:10;;;;;;;7.65;2.58;;;15.70;99.90;;;;;;5068357;28;20089;-71
2023/07/17 01:33:36;;;;;;;8.07;2.80;;;15.60;99.90;;;;;;5084975;28;20538;-72
2023/07/17 01:36:03;;;;;;;10.35;2.65;;;15.60;99.90;;;;;;5076755;28;20097;-72
2023/07/17 01:38:29;;;;;;;7.88;3.60;;;;;;;;;;5059325;28;20198;-72
2023/07/17 01:40:55;;;;;;;6.60;3.88;;;15.60;99.90;;;;;;5078612;28;20083;-72
2023/07/17 01:43:21;;;;;;;9.18;3.20;;;15.50;99.90;;;;;;5062565;28;20119;-71
2023/07/17 01:45:47;;;;;;;8.32;2.97;;;;;;;;;;5067506;28;20486;-72
2023/07/17 01:48:14;;;;;;;11.00;3.22;;;;;;;;;;5061946;28;20040;-71
2023/07/17 01:50:41;;;;;;;6.93;2.67;;;15.50;99.90;;;;;;5083018;28;20054;-72
2023/07/17 01:53:07;;;;;;;7.50;2.45;;;;;;;;;;5084672;28;20711;-71
2023/07/17 01:55:33;;;;;;;4.32;1.92;;;;;;;;;;5064773;28;20048;-71
2023/07/17 01:57:59;;;;;;;6.15;2.28;;;15.20;99.90;;;;;;5067208;28;20048;-71
2023/07/17 02:00:25;;;;;;;5.68;2.53;;;;;;;;;;5067760;28;20036;-72
2023/07/17 02:02:51;;;;;;;8.55;2.75;;;;;;;;;;5068111;28;20040;-72
2023/07/17 02:05:17;;;;;;;4.32;2.60;;;;;;;;;;5069061;28;20044;-72
2023/07/17 02:07:43;;;;;;;10.48;2.80;;;;;;;;;;5085525;28;20061;-72
2023/07/17 02:10:10;;;;;;;8.60;2.58;;;;;;;;;;5071747;28;20044;-72
2023/07/17 02:12:35;;;;;;;8.88;2.75;;;15.00;99.90;;;;;;5089526;28;20047;-71
2023/07/17 02:15:01;;;;;;;6.55;2.15;;;15.20;99.90;;;;;;5087288;28;20113;-71
2023/07/17 02:17:27;;;;;;;9.02;2.63;;;;;;;;;;5089947;28;20055;-71
2023/07/17 02:19:53;;;;;;;4.82;1.92;;;;;;;;;;5071968;28;20080;-71
2023/07/17 02:22:19;;;;;;;4.53;2.45;;;;;;;;;;5071514;28;20071;-72
2023/07/17 02:24:45;;;;;;;6.63;2.25;;;;;;;;;;5071107;28;20044;-72
2023/07/17 02:27:10;;;;;;;9.32;2.40;;;14.90;99.90;;;;;;5071525;28;20036;-72
2023/07/17 02:29:36;;;;;;;9.57;2.60;;;;;;;;;;5087625;28;20428;-72
2023/07/17 02:32:02;;;;;;;10.82;2.42;;;15.00;99.90;;;;;;5071238;28;20796;-72
2023/07/17 02:34:28;;;;;;;4.35;1.80;;;14.90;99.90;;;;;;5071218;28;20056;-71
2023/07/17 02:36:54;;;;;;;6.68;2.63;;;;;;;;;;5089380;28;20063;-72
2023/07/17 02:39:20;;;;;;;8.38;2.20;;;;;;;;;;5070668;28;20055;-71
2023/07/17 02:41:47;;;;;;;6.72;2.42;;;14.90;99.90;;;;;;5089771;28;20028;-72
2023/07/17 02:44:13;;;;;;;11.50;2.70;;;15.00;99.90;;;;;;5089560;28;20055;-72
2023/07/17 02:46:39;;;;;;;7.07;2.30;;;;;;;;;;5088451;28;20127;-71
2023/07/17 02:49:11;;;;;;;12.98;2.40;;;;;;;;;;5089626;28;20043;-72
2023/07/17 02:51:37;;;;;;;5.15;2.20;;;;;;;;;;5089084;28;20560;-71
2023/07/17 02:54:03;;;;;;;9.40;3.15;;;;;;;;;;5089566;28;20556;-72
2023/07/17 02:56:29;;;;;;;8.13;2.67;;;14.40;99.90;;;;;;5070791;28;20105;-71
2023/07/17 02:58:55;;;;;;;8.98;2.50;;;;;;;;;;5089500;28;20155;-72
2023/07/17 03:01:21;;;;;;;8.90;3.08;;;;;;;;;;5082559;28;20374;-71
2023/07/17 03:03:47;;;;;;;7.55;2.17;;;;;;;;;;5070343;28;20040;-71
2023/07/17 03:06:13;;;;;;;12.55;2.42;;;15.10;99.90;;;;;;5064017;28;20035;-72
2023/07/17 03:08:39;;;;;;;8.02;2.35;;;;;;;;;;5088295;28;20036;-72
2023/07/17 03:11:05;;;;;;;14.80;4.03;;;15.10;99.90;;;;;;5070633;28;20481;-71
2023/07/17 03:13:31;;;;;;;8.32;2.78;;;;;;;;;;5068425;28;20048;-72
2023/07/17 03:16:01;;;;;;;9.32;2.45;;;15.10;99.90;;;;;;5088610;28;20079;-71
2023/07/17 03:18:27;;;;;;;5.53;2.20;;;;;;;;;;5070306;28;20448;-72
2023/07/17 03:20:54;;;;;;;11.43;2.53;;;15.10;99.90;;;;;;5070271;28;20055;-71
2023/07/17 03:23:21;;;;;;;13.85;3.28;;;;;;;;;;5088635;28;20047;-72
2023/07/17 03:25:47;;;;;;;10.15;3.10;;;15.20;99.90;;;;;;5088295;28;20090;-71
2023/07/17 03:28:13;;;;;;;8.98;2.38;;;;;;;;;;5070071;28;20081;-72
2023/07/17 03:30:41;;;;;;;11.95;2.60;;;15.20;99.90;;;;;;5070059;28;20546;-72
2023/07/17 03:33:07;;;;;;;11.52;2.97;;;;;;;;;;5070042;28;20056;-71
2023/07/17 03:35:36;;;;;;;7.50;2.33;;;15.40;99.90;;;;;;5086465;28;20130;-72
2023/07/17 03:38:03;;;;;;;7.90;2.78;;;;;;;;;;5085022;28;20040;-72
2023/07/17 03:40:29;;;;;;;8.68;2.85;;;;;;;;;;5088594;28;20100;-72
2023/07/17 03:42:55;;;;;;;11.57;3.50;;;;;;;;;;5088917;28;20127;-72
2023/07/17 03:45:21;;;;;;;11.27;2.55;;;;;;;;;;5082826;28;20040;-72
2023/07/17 03:47:48;;;;;;;9.98;2.80;;;;;;;;;;5087764;28;20590;-72
2023/07/17 03:50:13;;;;;;;10.27;2.83;;;15.30;99.90;;;;;;5070038;28;20056;-72
2023/07/17 03:52:39;;;;;;;9.48;2.40;;;;;;;;;;5069539;28;20563;-72
2023/07/17 03:55:05;;;;;;;12.18;2.75;;;15.20;99.90;;;;;;5088189;28;20040;-72
2023/07/17 03:57:31;;;;;;;10.02;2.78;;;;;;;;;;5087716;28;20458;-71
2023/07/17 03:59:57;;;;;;;12.25;3.05;;;;;;;;;;5088449;28;20032;-72
2023/07/17 04:02:23;;;;;;;8.43;2.90;;;;;;;;;;5069432;28;20044;-71
2023/07/17 04:04:50;;;;;;;12.27;2.85;;;;;;;;;;5087719;28;20492;-72
2023/07/17 04:07:16;;;;;;;9.70;2.78;;;;;;;;;;5066673;28;20040;-72
2023/07/17 04:09:42;;;;;;;11.27;2.95;;;;;;;;;;5069212;28;20056;-72
2023/07/17 04:12:08;;;;;;;12.43;2.45;;;15.10;99.90;;;;;;5087758;28;20502;-72
2023/07/17 04:14:34;;;;;;;9.70;2.50;;;;;;;;;;5087518;28;20036;-72
2023/07/17 04:17:01;;;;;;;9.70;2.13;;;15.10;99.90;;;;;;5086658;28;20044;-72
2023/07/17 04:19:27;;;;;;;11.38;2.65;;;15.10;99.90;;;;;;5068932;28;20135;-72
2023/07/17 04:21:53;;;;;;;8.73;2.15;;;;;;;;;;5083320;28;20521;-71
2023/07/17 04:24:19;;;;;;;7.43;2.28;;;;;;;;;;5069117;28;20490;-71
2023/07/17 04:26:45;;;;;;;8.73;2.38;;;;;;;;;;5065403;28;20051;-72
2023/07/17 04:29:11;;;;;;;9.68;2.63;;;;;;;;;;5085569;28;20044;-72
2023/07/17 04:31:37;;;;;;;9.27;3.22;;;15.30;99.90;;;;;;5069249;28;20485;-72
2023/07/17 04:34:03;;;;;;;9.35;2.05;;;;;;;;;;5068372;28;20123;-71
2023/07/17 04:36:29;;;;;;;8.55;2.63;;;;;;;;;;5069716;28;20870;-72
2023/07/17 04:38:55;;;;;;;6.95;2.20;;;;;;;;;;5068454;28;20048;-72
2023/07/17 04:41:21;;;;;;;7.82;2.60;;;;;;;;;;5068788;28;20486;-72
2023/07/17 04:43:47;;;;;;;13.82;2.88;;;;;;;;;;5086743;28;20041;-71
2023/07/17 04:46:14;;;;;;;11.55;3.55;;;15.40;99.90;;;;;;5068464;28;20047;-72
2023/07/17 04:48:40;;;;;;;9.90;2.97;;;;;;;;;;5068622;28;20123;-72
2023/07/17 04:51:06;;;;;;;8.38;2.30;;;15.60;99.90;;;;;;5068599;28;20131;-72
2023/07/17 04:53:32;;;;;;;7.68;3.00;;;;;;;;;;5085376;28;20044;-71
2023/07/17 04:55:57;;;;;;;7.70;2.78;;;15.80;99.90;;;;;;5068423;28;20044;-72
2023/07/17 04:58:23;;;;;;;14.60;3.38;;;;;;;;;;5087124;28;20062;-72
2023/07/17 05:00:49;;;;;;;10.38;2.70;;;;;;;;;;5086015;28;20473;-72
2023/07/17 05:03:16;;;;;;;11.50;2.75;;;16.10;99.90;;;;;;5068626;28;20499;-72
2023/07/17 05:05:47;;;;;;;7.60;2.67;;;16.10;99.90;;;;;;5086441;28;20032;-72
2023/07/17 05:08:13;;;;;;;7.13;2.40;;;;;;;;;;5086602;28;20044;-72
2023/07/17 05:10:39;;;;;;;11.93;2.72;;;;;;;;;;5086853;28;20048;-72
2023/07/17 05:13:05;;;;;;;9.25;2.80;;;;;;;;;;5067997;28;20079;-72
2023/07/17 05:15:31;;;;;;;8.48;2.95;;;;;;;;;;5086203;28;20036;-72
2023/07/17 05:17:56;;;;;;;7.60;2.38;;;16.30;99.90;;;;;;5067064;28;20945;-72
2023/07/17 05:20:22;;;;;;;9.82;2.95;;;;;;;;;;5086233;28;20108;-72
2023/07/17 05:22:48;;;;;;;9.10;2.90;;;;;;;;;;5065091;28;20113;-71
2023/07/17 05:25:14;;;;;;;11.90;3.65;;;;;;;;;;5067604;28;20115;-72
2023/07/17 05:27:40;;;;;;;10.65;3.33;;;;;;;;;;5065728;28;20040;-72
2023/07/17 05:30:06;;;;;;;13.20;3.00;;;16.60;99.90;;;;;;5067630;28;20036;-72
2023/07/17 05:32:32;;;;;;;10.40;3.63;;;;;;;;;;5086116;28;20709;-71
2023/07/17 05:34:58;;;;;;;11.32;4.28;;;;;;;;;;5084184;28;20102;-72
2023/07/17 05:37:24;;;;;;;10.13;2.95;;;;;;;;;;5086770;28;20047;-72
2023/07/17 05:39:50;;;;;;;16.30;3.47;;;;;;;;;;5066031;28;20557;-71
2023/07/17 05:42:16;;;;;;;10.70;2.40;;;16.60;99.90;;;;;;5082027;28;20123;-72
2023/07/17 05:44:42;;;;;;;12.57;3.88;;;17.10;99.90;;;;;;5082283;28;20411;-72
2023/07/17 05:47:08;;;;;;;12.25;3.22;;;;;;;;;;5086049;28;20085;-72
2023/07/17 05:49:34;;;;;;;5.32;2.75;;;;;;;;;;5068168;28;20052;-72
2023/07/17 05:52:00;;;;;;;9.90;3.17;;;;;;;;;;5086231;28;20058;-72
2023/07/17 05:54:26;;;;;;;12.88;3.47;;;;;;;;;;5067761;28;20052;-72
2023/07/17 05:56:51;;;;;;;18.80;3.67;;;17.20;99.90;;;;;;5065832;28;20382;-72
2023/07/17 05:59:17;;;;;;;10.23;3.05;;;17.00;99.90;;;;;;5085631;28;20044;-72
2023/07/17 06:01:43;;;;;;;13.52;3.50;;;;;;;;;;5086380;28;20044;-72
2023/07/17 06:04:08;;;;;;;9.63;2.70;;;16.80;99.90;;;;;;5086163;28;20042;-72
2023/07/17 06:06:34;;;;;;;15.32;3.78;;;16.70;99.90;;;;;;5086757;28;20046;-71
2023/07/17 06:09:01;;;;;;;9.60;3.35;;;16.70;99.90;;;;;;5086461;28;20422;-72
2023/07/17 06:11:27;;;;;;;9.07;3.08;;;;;;;;;;5066768;28;20064;-72
2023/07/17 06:13:52;;;;;;;7.28;2.92;;;17.60;99.90;;;;;;5085566;28;20148;-72
2023/07/17 06:16:18;;;;;;;10.43;2.95;;;;;;;;;;5067846;28;20456;-72
2023/07/17 06:18:44;;;;;;;5.75;2.95;;;19.20;99.90;;;;;;5066453;28;20044;-72
2023/07/17 06:21:10;;;;;;;7.97;3.20;;;19.50;99.90;;;;;;5067785;28;20379;-72
2023/07/17 06:23:36;;;;;;;9.50;3.00;;;20.00;99.90;;;;;;5066493;28;20139;-72
2023/07/17 06:26:03;;;;;;;8.05;2.50;;;20.60;99.90;;;;;;5080082;28;20681;-72
2023/07/17 06:28:29;;;;;;;11.05;3.20;;;20.80;99.90;;;;;;5084329;28;20046;-72
2023/07/17 06:30:55;;;;;;;8.07;3.15;;;21.40;99.90;;;;;;5085760;28;20047;-72
2023/07/17 06:33:21;;;;;;;9.80;3.03;;;21.50;99.90;;;;;;5067679;28;20040;-72
2023/07/17 06:35:48;;;;;;;11.65;3.72;;;21.80;99.90;;;;;;5064129;28;20083;-71
2023/07/17 06:38:13;;;;;;;9.93;3.30;;;23.10;99.90;;;;;;5084911;28;20767;-71
2023/07/17 06:40:39;;;;;;;10.68;3.17;;;21.80;99.90;;;;;;5083326;28;20165;-73
2023/07/17 06:43:04;;;;;;;8.32;2.55;;;21.90;99.90;;;;;;5085100;28;20056;-74
2023/07/17 06:45:30;;;;;;;11.07;2.95;;;22.50;99.90;;;;;;5066626;28;20519;-73
2023/07/17 06:47:55;;;;;;;8.48;2.90;;;23.00;99.90;;;;;;5085099;28;20043;-74
2023/07/17 06:50:21;;;;;;;7.90;2.65;;;21.30;99.90;;;;;;5067901;28;20040;-73
2023/07/17 06:52:47;;;;;;;9.25;3.10;;;20.60;99.90;;;;;;5070475;28;20039;-71
2023/07/17 06:55:12;;;;;;;10.82;3.25;;;20.10;99.90;;;;;;5088296;28;20047;-71
2023/07/17 06:57:38;;;;;;;13.10;4.03;;;19.40;99.90;;;;;;5087612;28;20090;-71
2023/07/17 07:00:06;;;;;;;11.32;4.28;;;19.00;99.90;;;;;;5067251;28;20149;-71
2023/07/17 07:02:32;;;;;;;10.75;3.95;;;;;;;;;;5067989;28;20083;-70
2023/07/17 07:04:58;;;;;;;12.45;4.38;;;18.90;99.90;;;;;;5068283;28;20516;-70
2023/07/17 07:07:23;;;;;;;12.98;4.07;;;19.00;99.90;;;;;;5089438;28;20040;-70
2023/07/17 07:09:49;;;;;;;10.90;3.58;;;18.70;99.90;;;;;;5088814;28;20035;-71
2023/07/17 07:12:15;;;;;;;12.15;3.90;;;18.60;99.90;;;;;;5086902;28;20043;-70
2023/07/17 07:14:41;;;;;;;13.95;3.90;;;18.50;99.90;;;;;;5084223;28;20085;-70
2023/07/17 07:17:08;;;;;;;13.63;4.88;;;18.40;99.90;;;;;;5069052;28;20727;-70
2023/07/17 07:19:34;;;;;;;13.73;4.57;;;;;;;;;;5068484;28;20056;-70
2023/07/17 07:22:00;;;;;;;12.40;4.15;;;;;;;;;;5068554;28;20052;-70
2023/07/17 07:24:26;;;;;;;10.80;4.07;;;18.20;99.90;;;;;;5067102;28;20043;-70
2023/07/17 07:26:52;;;;;;;17.40;4.35;;;;;;;;;;5080020;28;20040;-70
2023/07/17 07:29:17;;;;;;;14.50;4.72;;;18.30;99.90;;;;;;5063894;28;20044;-70
2023/07/17 07:31:43;;;;;;;11.73;4.55;;;18.10;99.90;;;;;;5087790;28;20052;-70
2023/07/17 07:34:09;;;;;;;16.98;5.80;;;;;;;;;;5088151;28;20098;-70
2023/07/17 07:36:35;;;;;;;13.23;3.90;;;;;;;;;;5069835;28;20123;-69
2023/07/17 07:39:00;;;;;;;15.15;4.50;;;18.30;99.90;;;;;;5070091;28;20048;-70
2023/07/17 07:41:26;;;;;;;14.25;3.83;;;18.10;99.90;;;;;;5088150;28;20784;-70
2023/07/17 07:43:51;;;;;;;9.82;4.10;;;18.00;99.90;;;;;;5068638;28;20067;-70
2023/07/17 07:46:18;;;;;;;10.82;4.00;;;;;;;;;;5069815;28;20040;-70
2023/07/17 07:48:43;;;;;;;14.40;5.30;;;17.80;99.90;;;;;;5053334;28;20048;-70
2023/07/17 07:51:09;;;;;;;13.90;5.10;;;17.80;99.90;;;;;;5069381;28;20813;-70
2023/07/17 07:53:35;;;;;;;13.60;4.40;;;;;;;;;;5082664;28;20083;-71
2023/07/17 07:56:01;;;;;;;12.30;4.70;;;;;;;;;;5067832;28;20043;-72
2023/07/17 07:58:27;;;;;;;12.48;4.57;;;;;;;;;;5087400;28;20059;-72
2023/07/17 08:00:53;;;;;;;11.88;4.40;;;17.40;99.90;;;;;;5087832;28;20097;-72
2023/07/17 08:03:19;;;;;;;12.68;4.57;;;17.60;99.90;;;;;;5069008;28;20036;-72
2023/07/17 08:05:45;;;;;;;12.52;4.38;;;;;;;;;;5068325;28;20113;-72
2023/07/17 08:08:11;;;;;;;12.18;3.90;;;;;;;;;;5068122;28;20039;-72
2023/07/17 08:10:37;;;;;;;12.52;4.00;;;17.60;99.90;;;;;;5086028;28;20040;-72
2023/07/17 08:13:04;;;;;;;10.98;4.45;;;;;;;;;;5067596;28;20691;-73
2023/07/17 08:15:29;;;;;;;11.23;5.00;;;18.00;99.90;;;;;;5083646;28;20028;-71
2023/07/17 08:17:55;;;;;;;10.25;5.10;;;18.10;99.90;;;;;;5087716;28;20036;-71
2023/07/17 08:20:20;;;;;;;11.15;3.90;;;18.40;99.90;;;;;;5088002;28;20556;-71
2023/07/17 08:22:48;;;;;;;13.50;4.15;;;;;;;;;;5052020;28;20048;-71
2023/07/17 08:25:14;;;;;;;13.02;4.68;;;;;;;;;;5084403;28;20040;-71
2023/07/17 08:27:40;;;;;;;11.70;4.10;;;18.90;99.90;;;;;;5087565;28;20040;-71
2023/07/17 08:30:06;;;;;;;11.45;4.00;;;19.10;99.90;;;;;;5068184;28;20040;-71
2023/07/17 08:32:31;;;;;;;12.95;3.92;;;18.90;99.90;;;;;;5085370;28;21240;-72
2023/07/17 08:34:57;;;;;;;11.60;4.25;;;19.10;99.90;;;;;;5087060;28;20058;-72
2023/07/17 08:37:22;;;;;;;10.35;3.45;;;18.90;99.90;;;;;;5084910;28;20052;-71
2023/07/17 08:39:48;;;;;;;11.40;4.50;;;18.80;99.90;;;;;;5069070;28;20083;-72
2023/07/17 08:42:14;;;;;;;12.23;4.32;;;;;;;;;;5086541;28;20056;-72
2023/07/17 08:44:40;;;;;;;10.98;4.18;;;18.70;99.90;;;;;;5086882;28;20118;-71
2023/07/17 08:47:08;;;;;;;5.90;2.30;;;19.00;99.90;;;;;;5087175;28;20036;-71
2023/07/17 08:49:35;;;;;;;7.43;2.35;;;19.30;99.90;;;;;;5068262;28;20482;-72
2023/07/17 08:52:03;;;;;;;6.65;2.22;;;19.40;99.90;;;;;;5060809;28;20075;-71
2023/07/17 08:54:29;;;;;;;5.53;2.13;;;;;;;;;;5066564;28;20044;-71
2023/07/17 08:57:01;;;;;;;10.55;2.35;;;19.40;99.90;;;;;;5063528;28;20073;-71
2023/07/17 08:59:27;;;;;;;6.10;2.35;;;19.50;99.90;;;;;;5082130;28;20043;-71
2023/07/17 09:01:54;;;;;;;9.30;3.13;;;19.60;99.90;;;;;;5067851;28;20055;-72
2023/07/17 09:04:20;;;;;;;6.93;1.88;;;;;;;;;;5079482;28;20043;-71
2023/07/17 09:06:46;;;;;;;7.70;1.95;;;19.50;99.90;;;;;;5083783;28;20040;-71
2023/07/17 09:09:12;;;;;;;5.38;1.90;;;19.70;99.90;;;;;;5086366;28;20850;-71
2023/07/17 09:11:38;;;;;;;6.20;2.13;;;;;;;;;;5085713;28;20819;-71
2023/07/17 09:14:07;;;;;;;5.25;1.67;;;19.50;99.90;;;;;;5084930;28;20127;-71
2023/07/17 09:16:33;;;;;;;7.22;2.05;;;19.50;99.90;;;;;;5063679;28;20050;-71
2023/07/17 09:19:00;;;;;;;5.20;2.10;;;19.40;99.90;;;;;;5084759;28;20032;-71
2023/07/17 09:21:26;;;;;;;14.05;2.63;;;19.70;99.90;;;;;;5085935;28;20046;-71
2023/07/17 09:23:53;;;;;;;6.35;1.75;;;19.80;99.90;;;;;;5086316;28;20032;-71
2023/07/17 09:26:21;;;;;;;8.45;2.42;;;19.70;99.90;;;;;;5068423;28;20044;-71
2023/07/17 09:28:51;;;;;;;8.20;2.25;;;20.30;99.90;;;;;;5086211;28;20050;-72
2023/07/17 09:31:27;;;;;;;7.95;2.22;;;20.10;99.90;;;;;;5084564;28;20062;-72
2023/07/17 09:33:54;;;;;;;4.13;1.70;;;20.50;99.90;;;;;;5062552;28;20066;-77
2023/07/17 09:36:21;;;;;;;6.18;1.95;;;21.80;99.90;;;;;;5062143;28;20071;-71
2023/07/17 09:38:57;;;;;;;9.43;2.50;;;20.20;99.90;;;;;;5060373;28;20044;-71
2023/07/17 09:41:27;;;;;;;4.82;2.13;;;20.00;99.90;;;;;;5064166;28;20062;-70
2023/07/17 09:43:58;;;;;;;6.15;1.90;;;19.90;99.90;;;;;;5083913;28;20097;-70
2023/07/17 09:46:26;;;;;;;13.07;2.13;;;20.10;99.90;;;;;;5081447;28;20058;-70
2023/07/17 09:48:53;;;;;;;7.97;1.85;;;19.90;99.90;;;;;;5067684;28;20048;-70
2023/07/17 09:51:20;;;;;;;7.43;2.70;;;20.00;99.90;;;;;;5085745;28;20032;-71
2023/07/17 09:53:47;;;;;;;5.90;2.25;;;19.80;99.90;;;;;;5068490;28;20106;-72
2023/07/17 09:56:14;;;;;;;9.35;2.60;;;19.90;99.90;;;;;;5066308;28;20042;-71
2023/07/17 09:58:47;;;;;;;7.45;2.35;;;19.60;99.90;;;;;;5085169;28;20044;-71
2023/07/17 10:01:17;;;;;;;4.78;2.40;;;19.70;99.90;;;;;;5083929;28;20055;-71
2023/07/17 10:03:46;;;;;;;7.63;2.47;;;19.80;99.90;;;;;;5085754;28;20048;-71
2023/07/17 10:06:17;;;;;;;5.82;2.75;;;17.10;99.90;;;;;;5082218;28;20043;-71
2023/07/17 10:09:02;;;;;;;7.85;2.38;;;19.80;99.90;;;;;;5067990;28;20568;-71
2023/07/17 10:11:28;;;;;;;10.40;2.40;;;20.00;99.90;;;;;;5083505;28;20036;-71
2023/07/17 10:13:54;;;;;;;6.35;2.47;;;20.20;99.90;;;;;;5077853;28;20105;-72
2023/07/17 10:16:21;;;;;;;9.20;2.08;;;20.50;99.90;;;;;;5065889;28;20044;-71
2023/07/17 10:18:48;;;;;;;7.53;2.20;;;20.50;99.90;;;;;;5066840;28;20055;-72
2023/07/17 10:21:15;;;;;;;9.57;3.10;;;20.60;99.90;;;;;;5064705;28;20043;-72
2023/07/17 10:23:43;;;;;;;6.18;2.50;;;20.50;99.90;;;;;;5084426;28;20040;-72
2023/07/17 10:26:13;;;;;;;4.18;1.90;;;20.70;99.90;;;;;;5085114;28;20705;-72
2023/07/17 10:28:40;;;;;;;6.50;2.00;;;21.00;99.90;;;;;;5069438;28;20117;-72
2023/07/17 10:31:17;;;;;;;8.98;2.20;;;21.40;99.90;;;;;;5069103;28;20055;-72
2023/07/17 10:33:50;;;;;;;7.45;2.35;;;21.20;99.90;;;;;;5088464;28;20386;-72
2023/07/17 10:36:16;;;;;;;3.40;1.65;;;21.10;99.90;;;;;;5087016;28;20803;-72
2023/07/17 10:38:47;;;;;;;6.70;2.47;;;21.40;99.90;;;;;;5070323;28;20048;-72
2023/07/17 10:41:12;;;;;;;9.45;2.58;;;21.40;99.90;;;;;;5085747;28;20116;-72
2023/07/17 10:43:54;;;;;;;5.28;1.98;;;21.40;99.90;;;;;;5089564;28;20039;-72
2023/07/17 10:46:24;;;;;;;6.60;1.75;;;21.60;99.90;;;;;;5060097;28;20044;-71
2023/07/17 10:48:49;;;;;;;7.22;1.77;;;21.50;99.90;;;;;;5054744;28;20405;-71
2023/07/17 10:51:15;;;;;;;6.70;2.00;;;22.60;99.90;;;;;;5066611;28;20040;-71
2023/07/17 10:53:41;;;;;;;5.25;1.58;;;21.40;99.90;;;;;;5085456;28;20041;-71
2023/07/17 10:56:07;;;;;;;5.43;1.80;;;21.50;99.90;;;;;;5085368;28;20071;-71
2023/07/17 10:58:32;;;;;;;5.75;1.63;;;22.30;99.90;;;;;;5080971;28;20056;-71
2023/07/17 11:01:04;;;;;;;4.63;1.60;;;21.50;99.90;;;;;;5089180;28;20043;-71
2023/07/17 11:03:29;;;;;;;9.07;2.33;;;21.50;99.90;;;;;;5086615;28;20687;-71
2023/07/17 11:05:58;;;;;;;5.65;1.60;;;22.90;99.90;;;;;;5088359;28;20053;-71
2023/07/17 11:08:29;;;;;;;5.38;1.67;;;21.60;99.90;;;;;;5089454;28;20115;-72
2023/07/17 11:10:55;;;;;;;8.30;1.73;;;22.60;99.90;;;;;;5085227;28;20044;-72
2023/07/17 11:13:20;;;;;;;6.07;2.08;;;21.60;99.90;;;;;;5070543;28;20044;-71
2023/07/17 11:15:46;;;;;;;5.85;2.17;;;21.80;99.90;;;;;;5069388;28;20176;-72
2023/07/17 11:18:11;;;;;;;9.07;2.67;;;21.80;99.90;;;;;;5080664;28;20043;-71
2023/07/17 11:20:37;;;;;;;6.15;1.70;;;21.70;99.90;;;;;;5086192;28;20040;-71
2023/07/17 11:23:03;;;;;;;8.82;1.98;;;21.50;99.90;;;;;;5085120;28;20039;-72
2023/07/17 11:25:31;;;;;;;6.68;1.60;;;22.60;99.90;;;;;;5085489;28;20036;-72
2023/07/17 11:27:59;;;;;;;16.67;3.25;;;21.40;99.90;;;;;;5088695;28;20028;-71
2023/07/17 11:30:29;;;;;;;3.78;1.63;;;20.90;99.90;;;;;;5067024;28;20050;-71
2023/07/17 11:33:02;;;;;;;7.93;1.73;;;21.10;99.90;;;;;;5070405;28;20050;-72
2023/07/17 11:35:52;;;;;;;5.47;1.48;;;20.90;99.90;;;;;;5085723;28;20094;-71
2023/07/17 11:38:19;;;;;;;7.53;1.98;;;21.30;99.90;;;;;;5064842;28;20409;-71
2023/07/17 11:40:54;;;;;;;6.90;1.98;;;21.60;99.90;;;;;;5070377;28;20108;-71
2023/07/17 11:43:54;;;;;;;7.10;1.90;;;21.40;99.90;;;;;;5050623;28;20079;-71
2023/07/17 11:46:20;;;;;;;7.38;1.60;;;21.50;99.90;;;;;;5083920;28;20035;-72
2023/07/17 11:48:46;;;;;;;5.55;1.90;;;21.30;99.90;;;;;;5053280;28;20040;-71
2023/07/17 11:51:11;;;;;;;6.82;1.80;;;22.60;99.90;;;;;;5070251;28;20083;-71
2023/07/17 11:53:38;;;;;;;6.63;2.17;;;20.90;99.90;;;;;;5069446;28;20032;-71
2023/07/17 11:56:04;;;;;;;4.53;1.70;;;21.20;99.90;;;;;;5088677;28;20032;-72
2023/07/17 11:58:35;;;;;;;6.43;1.30;;;21.00;99.90;;;;;;5070995;28;20055;-71
2023/07/17 12:01:01;;;;;;;5.13;2.20;;;21.10;99.90;;;;;;5069419;28;20044;-71
2023/07/17 12:03:27;;;;;;;5.72;1.73;;;20.90;99.90;;;;;;5088359;28;20036;-71
2023/07/17 12:05:52;;;;;;;6.53;2.08;;;21.10;99.90;;;;;;5087086;28;20583;-72
2023/07/17 12:08:18;;;;;;;8.60;1.40;;;21.30;99.90;;;;;;5088209;28;20031;-72
2023/07/17 12:10:44;;;;;;;4.85;1.58;;;21.40;99.90;;;;;;5069050;28;20044;-71
2023/07/17 12:13:09;;;;;;;7.15;1.90;;;21.10;99.90;;;;;;5068053;28;20043;-71
2023/07/17 12:15:35;;;;;;;4.78;1.63;;;21.40;99.90;;;;;;5080935;28;20558;-71
2023/07/17 12:18:01;;;;;;;6.25;1.73;;;21.50;99.90;;;;;;5084103;28;20032;-71
2023/07/17 12:20:29;;;;;;;9.43;1.35;;;21.40;99.90;;;;;;5069405;28;20725;-71
2023/07/17 12:22:56;;;;;;;3.05;1.10;;;20.60;99.90;;;;;;5085327;28;20040;-71
2023/07/17 12:25:22;;;;;;;4.18;1.38;;;21.20;99.90;;;;;;5086152;28;20504;-71
2023/07/17 12:27:48;;;;;;;4.97;0.98;;;21.40;99.90;;;;;;5069817;28;20043;-71
2023/07/17 12:30:15;;;;;;;5.13;1.13;;;21.20;99.90;;;;;;5064755;28;20439;-71
2023/07/17 12:32:42;;;;;;;5.82;1.48;;;21.10;99.90;;;;;;5083917;28;20098;-71
2023/07/17 12:35:08;;;;;;;6.75;2.17;;;21.50;99.90;;;;;;5083813;28;20417;-71
2023/07/17 12:37:34;;;;;;;4.03;1.17;;;21.30;99.90;;;;;;5085674;28;20486;-71
2023/07/17 12:40:00;;;;;;;3.28;1.25;;;21.20;99.90;;;;;;5086599;28;20047;-72
2023/07/17 12:42:26;;;;;;;3.42;1.13;;;21.00;99.90;;;;;;5078842;28;20043;-71
2023/07/17 12:44:52;;;;;;;3.85;1.10;;;20.90;99.90;;;;;;5068156;28;20047;-72
2023/07/17 12:47:18;;;;;;;5.07;1.08;;;21.10;99.90;;;;;;5083672;28;20050;-72
2023/07/17 12:49:44;;;;;;;2.95;1.17;;;21.30;99.90;;;;;;5085046;28;20109;-71
2023/07/17 12:52:09;;;;;;;6.18;1.40;;;21.50;99.90;;;;;;5063141;28;20129;-72
2023/07/17 12:54:35;;;;;;;3.53;1.10;;;21.70;99.90;;;;;;5066664;28;20056;-71
2023/07/17 12:57:01;;;;;;;8.13;1.67;;;21.40;99.90;;;;;;5085351;28;20048;-71
2023/07/17 12:59:27;;;;;;;5.72;1.70;;;21.10;99.90;;;;;;5068348;28;20497;-71
2023/07/17 13:01:53;;;;;;;7.00;1.35;;;22.80;99.90;;;;;;5064954;28;20044;-71
2023/07/17 13:04:19;;;;;;;6.38;1.40;;;20.90;99.90;;;;;;5086709;28;20107;-72
2023/07/17 13:06:45;;;;;;;6.40;1.30;;;20.70;99.90;;;;;;5085320;28;20050;-72
2023/07/17 13:09:11;;;;;;;4.30;1.63;;;21.00;99.90;;;;;;5086240;28;20043;-72
2023/07/17 13:11:36;;;;;;;4.93;1.58;;;20.70;99.90;;;;;;5079635;28;20039;-71
2023/07/17 13:14:03;;;;;;;10.32;1.50;;;20.90;99.90;;;;;;5081778;28;20498;-71